Time;durP1;ratioP1;P1;durP2;ratioP2;P2;SDS_P1;SDS_P2;PMS_P1;PMS_P2;Temp;Humidity;BMP_temperature;BMP_pressure;BME280_temperature;BME280_humidity;BME280_pressure;Samples;Min_cycle;Max_cycle;Signal;HPM_P1;HPM_P2
2022/03/16 00:00:23;;;;;;;24.60;15.53;;;;;;;8.38;57.82;100607.94;2065885;84;21014;-80
2022/03/16 00:03:25;;;;;;;24.37;14.45;;;;;;;8.43;57.75;100612.85;2063550;84;21003;-80
2022/03/16 00:06:26;;;;;;;20.97;12.37;;;;;;;8.48;57.41;100620.71;2062143;84;22178;-81
2022/03/16 00:09:28;;;;;;;23.18;13.60;;;;;;;8.67;55.92;100620.31;2072017;84;21027;-82
2022/03/16 00:12:29;;;;;;;20.23;12.58;;;;;;;8.90;55.12;100631.44;2068667;84;21066;-80
2022/03/16 00:15:31;;;;;;;19.95;11.90;;;;;;;8.99;55.02;100630.56;2072909;84;21657;-82
2022/03/16 00:18:32;;;;;;;23.10;13.15;;;;;;;9.03;55.50;100629.78;2071430;84;20983;-81
2022/03/16 00:21:34;;;;;;;20.48;12.98;;;;;;;9.01;55.10;100633.05;2062754;84;21585;-82
2022/03/16 00:24:36;;;;;;;18.92;12.75;;;;;;;8.98;55.07;100630.20;2066014;84;21019;-79
2022/03/16 00:27:37;;;;;;;22.15;14.20;;;;;;;8.95;55.10;100632.67;2065541;84;21014;-79
2022/03/16 00:30:39;;;;;;;19.45;14.00;;;;;;;8.93;54.80;100637.27;2064199;84;21058;-79
2022/03/16 00:33:41;;;;;;;24.95;14.93;;;;;;;8.91;54.95;100637.06;2069015;84;21541;-79
2022/03/16 00:36:42;;;;;;;19.90;14.20;;;;;;;8.88;55.23;100639.50;2064992;84;21050;-79
2022/03/16 00:39:44;;;;;;;21.30;13.88;;;;;;;8.81;55.25;100638.39;2065894;84;20971;-82
2022/03/16 00:42:46;;;;;;;20.55;14.73;;;;;;;8.77;55.20;100642.31;2064515;84;21660;-80
2022/03/16 00:45:47;;;;;;;21.68;13.95;;;;;;;8.73;55.46;100643.59;2070467;85;21056;-80
2022/03/16 00:48:49;;;;;;;19.30;13.98;;;;;;;8.67;55.85;100645.45;2069205;85;20978;-81
2022/03/16 00:51:50;;;;;;;20.48;14.13;;;;;;;8.59;55.93;100652.80;2064821;85;20981;-79
2022/03/16 00:54:52;;;;;;;20.82;14.30;;;;;;;8.53;56.20;100658.16;2070555;85;21049;-80
2022/03/16 00:57:53;;;;;;;22.98;15.08;;;;;;;8.49;56.58;100659.89;2063691;85;21050;-79
2022/03/16 01:00:55;;;;;;;19.98;13.80;;;;;;;8.41;56.76;100658.42;2067767;85;21009;-80
2022/03/16 01:03:58;;;;;;;21.73;13.80;;;;;;;8.32;56.90;100661.39;2070478;85;21073;-78
2022/03/16 01:07:00;;;;;;;23.85;14.13;;;;;;;8.27;57.25;100664.93;2068291;85;21051;-79
2022/03/16 01:10:01;;;;;;;22.00;13.85;;;;;;;8.22;57.59;100669.80;2069830;85;21602;-80
2022/03/16 01:13:03;;;;;;;20.85;14.85;;;;;;;8.15;57.86;100668.20;2073747;85;20991;-79
2022/03/16 01:16:05;;;;;;;24.50;15.43;;;;;;;8.09;58.26;100673.55;2066622;85;21568;-83
2022/03/16 01:19:07;;;;;;;23.20;15.50;;;;;;;8.04;58.20;100674.44;2071023;85;21013;-80
2022/03/16 01:22:09;;;;;;;22.50;14.03;;;;;;;8.01;58.65;100672.07;2066129;85;20990;-80
2022/03/16 01:25:12;;;;;;;23.12;14.75;;;;;;;7.94;59.20;100670.96;2071490;85;21600;-78
2022/03/16 01:28:15;;;;;;;20.52;14.90;;;;;;;7.86;59.42;100676.91;2067798;85;20993;-82
2022/03/16 01:31:19;;;;;;;19.02;14.63;;;;;;;7.78;59.87;100675.92;2068924;85;21046;-79
2022/03/16 01:34:22;;;;;;;24.63;14.98;;;;;;;7.69;60.24;100668.81;2068618;85;21078;-81
2022/03/16 01:37:24;;;;;;;25.35;15.75;;;;;;;7.61;60.58;100670.80;2064359;85;21054;-81
2022/03/16 01:40:25;;;;;;;21.97;14.73;;;;;;;7.53;61.07;100667.50;2067562;85;20994;-79
2022/03/16 01:43:28;;;;;;;20.60;14.07;;;;;;;7.50;61.29;100665.13;2078595;84;21035;-81
2022/03/16 01:46:30;;;;;;;19.65;13.62;;;;;;;7.49;61.69;100667.88;2077092;83;21082;-81
2022/03/16 01:49:31;;;;;;;21.20;14.80;;;;;;;7.46;61.95;100661.09;2077067;84;20988;-82
2022/03/16 01:52:33;;;;;;;18.92;14.18;;;;;;;7.38;62.10;100668.84;2077414;84;21520;-81
2022/03/16 01:55:34;;;;;;;25.65;17.70;;;;;;;7.32;62.59;100664.06;2077586;84;21458;-82
2022/03/16 01:58:36;;;;;;;20.92;16.02;;;;;;;7.24;62.88;100663.92;2073638;84;21111;-78
2022/03/16 02:01:38;;;;;;;21.42;16.35;;;;;;;7.21;62.96;100661.52;2077448;84;21640;-82
2022/03/16 02:04:41;;;;;;;26.17;18.17;;;;;;;7.23;63.25;100656.95;2081645;84;21078;-80
2022/03/16 02:07:43;;;;;;;25.12;17.98;;;;;;;7.21;63.52;100661.05;2070150;84;21007;-81
2022/03/16 02:10:45;;;;;;;26.85;18.07;;;;;;;7.12;63.86;100669.28;2075332;84;21019;-79
2022/03/16 02:13:48;;;;;;;23.10;17.00;;;;;;;6.98;64.59;100668.27;2067627;84;21019;-80
2022/03/16 02:16:51;;;;;;;21.57;17.00;;;;;;;6.73;65.16;100671.68;2074391;84;21611;-80
2022/03/16 02:19:52;;;;;;;28.87;19.17;;;;;;;6.55;65.87;100669.23;2081454;84;20990;-79
2022/03/16 02:23:03;;;;;;;25.62;19.37;;;;;;;6.40;66.03;100675.80;2100125;83;21057;-82
2022/03/16 02:26:04;;;;;;;25.30;18.00;;;;;;;6.40;66.24;100677.11;2073095;84;21568;-80
2022/03/16 02:29:06;;;;;;;23.87;17.07;;;;;;;6.43;66.51;100678.17;2076771;84;21041;-80
2022/03/16 02:32:08;;;;;;;23.83;17.10;;;;;;;6.45;66.65;100674.45;2073104;84;21002;-78
2022/03/16 02:35:10;;;;;;;24.20;16.48;;;;;;;6.51;66.87;100674.42;2105485;82;21304;-81
2022/03/16 02:38:12;;;;;;;21.57;16.40;;;;;;;6.58;67.10;100682.66;2107828;83;20983;-80
2022/03/16 02:41:13;;;;;;;22.80;16.40;;;;;;;6.68;67.17;100685.72;2074255;84;21034;-81
2022/03/16 02:44:15;;;;;;;27.35;17.75;;;;;;;6.79;67.16;100685.32;2071162;84;21066;-83
2022/03/16 02:47:16;;;;;;;28.25;18.27;;;;;;;6.89;67.27;100688.35;2076110;84;21034;-81
2022/03/16 02:50:19;;;;;;;25.27;18.48;;;;;;;6.95;67.27;100693.59;2072443;84;21029;-80
2022/03/16 02:53:21;;;;;;;26.97;19.50;;;;;;;7.00;67.41;100694.05;2073051;84;21023;-79
2022/03/16 02:56:27;;;;;;;24.57;18.30;;;;;;;7.00;67.56;100691.41;2066518;84;21009;-81
2022/03/16 02:59:26;;;;;;;27.22;19.20;;;;;;;7.00;67.60;100699.81;2150015;81;20992;-79
2022/03/16 03:02:27;;;;;;;26.93;19.40;;;;;;;6.99;67.75;100696.34;2146788;80;20993;-78
2022/03/16 03:05:29;;;;;;;27.90;19.37;;;;;;;6.96;67.82;100713.76;2146344;80;21034;-80
2022/03/16 03:08:30;;;;;;;29.90;18.70;;;;;;;6.87;68.02;100711.41;2144438;81;21499;-78
2022/03/16 03:11:32;;;;;;;29.82;19.87;;;;;;;6.79;68.36;100719.61;2150510;81;21006;-80
2022/03/16 03:14:33;;;;;;;24.07;19.05;;;;;;;6.66;68.53;100725.88;2143166;81;21430;-80
2022/03/16 03:17:35;;;;;;;27.22;17.95;;;;;;;6.64;68.73;100723.02;2146101;81;21496;-80
2022/03/16 03:20:36;;;;;;;25.75;18.77;;;;;;;6.67;68.91;100732.84;2148535;81;21571;-79
2022/03/16 03:23:38;;;;;;;25.95;19.05;;;;;;;6.71;69.07;100728.16;2145743;81;21033;-79
2022/03/16 03:26:40;;;;;;;26.73;18.32;;;;;;;6.68;69.07;100731.87;2139767;81;21002;-79
2022/03/16 03:29:42;;;;;;;27.27;18.70;;;;;;;6.68;69.17;100740.27;2142442;81;21050;-80
2022/03/16 03:32:43;;;;;;;23.52;17.25;;;;;;;6.62;69.34;100742.94;2149239;81;21012;-81
2022/03/16 03:35:45;;;;;;;23.98;17.52;;;;;;;6.58;69.39;100746.77;2143619;81;21062;-80
2022/03/16 03:38:46;;;;;;;23.92;17.60;;;;;;;6.56;69.65;100742.13;2144191;81;21571;-80
2022/03/16 03:41:48;;;;;;;24.98;18.70;;;;;;;6.55;69.77;100745.70;2140906;81;21017;-79
2022/03/16 03:44:50;;;;;;;29.02;19.87;;;;;;;6.55;69.90;100752.30;2091608;82;21038;-81
2022/03/16 03:47:51;;;;;;;23.70;17.62;;;;;;;6.63;70.02;100750.36;2093182;82;21015;-82
2022/03/16 03:50:53;;;;;;;27.20;18.95;;;;;;;6.63;70.09;100753.00;2093932;83;21007;-82
2022/03/16 03:53:54;;;;;;;24.23;17.17;;;;;;;6.47;70.11;100762.63;2092358;83;21042;-79
2022/03/16 03:56:56;;;;;;;24.37;18.27;;;;;;;6.53;70.45;100762.61;2094257;84;21050;-81
2022/03/16 03:59:58;;;;;;;26.33;18.40;;;;;;;6.56;70.45;100765.86;2090406;82;21025;-81
2022/03/16 04:02:59;;;;;;;28.90;20.12;;;;;;;6.55;70.82;100778.66;2093792;82;20990;-83
2022/03/16 04:06:02;;;;;;;27.90;19.82;;;;;;;6.38;70.80;100775.23;2096054;84;21010;-78
2022/03/16 04:09:04;;;;;;;50.15;25.77;;;;;;;6.36;70.93;100775.34;2093554;84;21917;-83
2022/03/16 04:12:07;;;;;;;34.55;21.70;;;;;;;6.15;71.24;100791.09;2097480;84;21045;-79
2022/03/16 04:15:09;;;;;;;34.40;22.10;;;;;;;6.04;71.76;100787.16;2092067;82;20991;-81
2022/03/16 04:18:11;;;;;;;30.17;21.90;;;;;;;6.03;71.92;100796.86;2097778;82;21058;-78
2022/03/16 04:21:12;;;;;;;30.48;22.15;;;;;;;6.03;72.05;100797.34;2091193;83;21009;-80
2022/03/16 04:24:14;;;;;;;31.12;23.73;;;;;;;6.01;72.18;100801.41;2094362;83;21035;-81
2022/03/16 04:27:15;;;;;;;35.55;25.10;;;;;;;6.03;72.33;100803.93;2095483;84;21275;-77
2022/03/16 04:30:17;;;;;;;35.38;24.00;;;;;;;6.01;72.48;100806.67;2095684;83;21521;-82
2022/03/16 04:33:18;;;;;;;33.45;24.05;;;;;;;5.99;72.56;100811.22;2092701;82;21564;-80
2022/03/16 04:36:20;;;;;;;37.67;25.00;;;;;;;5.96;72.83;100813.26;2093237;84;21496;-82
2022/03/16 04:39:22;;;;;;;41.77;28.87;;;;;;;5.91;73.01;100818.84;2092111;84;21003;-81
2022/03/16 04:42:23;;;;;;;50.38;31.73;;;;;;;5.89;73.13;100822.58;2100123;82;21340;-79
2022/03/16 04:45:25;;;;;;;53.55;32.60;;;;;;;5.83;73.33;100816.83;2113042;82;20999;-79
2022/03/16 04:48:26;;;;;;;50.45;31.60;;;;;;;5.81;73.47;100821.85;2115081;82;21026;-78
2022/03/16 04:51:28;;;;;;;47.55;30.27;;;;;;;5.76;73.69;100830.09;2113914;82;21073;-80
2022/03/16 04:54:30;;;;;;;46.45;29.45;;;;;;;5.73;73.88;100836.92;2112843;82;21002;-80
2022/03/16 04:57:31;;;;;;;44.03;29.20;;;;;;;5.73;73.91;100837.41;2119048;82;20955;-79
2022/03/16 05:00:35;;;;;;;42.03;28.87;;;;;;;5.71;74.20;100840.63;2109749;82;22067;-80
2022/03/16 05:03:37;;;;;;;49.63;27.85;;;;;;;5.68;74.28;100852.23;2116971;82;21141;-79
2022/03/16 05:06:38;;;;;;;44.70;28.23;;;;;;;5.66;74.52;100851.52;2113767;82;21643;-80
2022/03/16 05:09:40;;;;;;;44.13;27.35;;;;;;;5.66;74.52;100853.30;2118048;82;21494;-79
2022/03/16 05:12:44;;;;;;;41.85;25.77;;;;;;;5.66;74.70;100854.16;2112204;82;21031;-79
2022/03/16 05:15:47;;;;;;;37.65;26.62;;;;;;;5.66;74.82;100854.61;2119294;82;21059;-80
2022/03/16 05:18:49;;;;;;;40.80;26.82;;;;;;;5.66;74.85;100859.88;2117224;82;21318;-79
2022/03/16 05:21:50;;;;;;;37.95;27.75;;;;;;;5.67;75.07;100863.72;2116426;82;20995;-79
2022/03/16 05:24:52;;;;;;;39.67;27.52;;;;;;;5.68;74.99;100864.08;2112585;82;21469;-78
2022/03/16 05:27:54;;;;;;;43.40;27.95;;;;;;;5.72;75.03;100869.48;2111176;82;21603;-76
2022/03/16 05:30:56;;;;;;;48.28;27.87;;;;;;;5.73;75.02;100867.20;2121630;82;21547;-81
2022/03/16 05:33:57;;;;;;;46.88;29.00;;;;;;;5.74;75.03;100867.55;2115579;82;21001;-78
2022/03/16 05:36:59;;;;;;;44.75;29.55;;;;;;;5.76;75.09;100865.65;2112676;82;21005;-82
2022/03/16 05:40:01;;;;;;;43.55;27.42;;;;;;;5.81;75.10;100866.63;2117012;82;21021;-79
2022/03/16 05:43:02;;;;;;;44.48;27.25;;;;;;;5.83;75.14;100866.87;2115239;82;20995;-79
2022/03/16 05:46:04;;;;;;;44.13;30.37;;;;;;;5.85;75.13;100867.56;2118814;82;21499;-80
2022/03/16 05:49:06;;;;;;;40.28;27.67;;;;;;;5.83;75.19;100864.23;2115248;82;21005;-81
2022/03/16 05:52:07;;;;;;;37.70;26.30;;;;;;;5.81;75.29;100873.20;2112867;82;20994;-80
2022/03/16 05:55:13;;;;;;;45.30;27.05;;;;;;;5.77;75.52;100873.06;2110023;82;21460;-80
2022/03/16 05:58:14;;;;;;;45.38;29.42;;;;;;;5.75;75.75;100872.36;2114028;82;21385;-80
2022/03/16 06:01:15;;;;;;;48.23;30.48;;;;;;;5.73;75.99;100878.22;2117027;82;21005;-80
2022/03/16 06:04:17;;;;;;;48.80;31.80;;;;;;;5.71;76.24;100884.91;2118144;82;21014;-80
2022/03/16 06:07:18;;;;;;;46.20;30.17;;;;;;;5.68;76.80;100893.04;2112493;82;21030;-81
2022/03/16 06:10:20;;;;;;;48.00;31.97;;;;;;;5.65;76.70;100893.27;2111862;82;21001;-78
2022/03/16 06:13:23;;;;;;;47.00;31.52;;;;;;;5.67;76.81;100906.34;2120853;82;21042;-81
2022/03/16 06:16:24;;;;;;;49.48;32.42;;;;;;;5.67;76.69;100904.53;2109650;82;20993;-80
2022/03/16 06:19:26;;;;;;;51.50;33.30;;;;;;;5.72;76.87;100918.20;2118731;82;21589;-79
2022/03/16 06:22:27;;;;;;;50.50;33.85;;;;;;;5.73;77.27;100915.92;2111314;82;20986;-80
2022/03/16 06:25:29;;;;;;;53.08;33.73;;;;;;;5.77;77.32;100918.70;2120297;82;21533;-79
2022/03/16 06:28:32;;;;;;;52.65;33.65;;;;;;;5.84;77.20;100921.21;2119011;82;20987;-79
2022/03/16 06:31:34;;;;;;;53.48;34.98;;;;;;;5.93;77.92;100929.38;2114287;82;21504;-80
2022/03/16 06:34:35;;;;;;;58.85;34.58;;;;;;;5.99;77.37;100935.52;2117655;82;21517;-80
2022/03/16 06:37:37;;;;;;;57.48;36.38;;;;;;;6.07;77.60;100946.31;2110275;82;21630;-79
2022/03/16 06:40:39;;;;;;;55.33;36.40;;;;;;;6.17;77.44;100964.42;2117851;82;21034;-77
2022/03/16 06:43:41;;;;;;;59.70;36.30;;;;;;;6.29;77.49;100964.78;2130444;81;21029;-79
2022/03/16 06:46:43;;;;;;;52.43;34.98;;;;;;;6.45;77.27;100972.84;2143768;81;21553;-79
2022/03/16 06:49:45;;;;;;;60.95;38.80;;;;;;;6.63;77.34;100968.75;2146514;81;20990;-79
2022/03/16 06:52:47;;;;;;;60.85;38.78;;;;;;;6.77;76.90;100978.70;2143184;81;21502;-80
2022/03/16 06:55:49;;;;;;;66.55;41.53;;;;;;;6.87;76.76;100980.95;2143925;81;21015;-79
2022/03/16 06:58:51;;;;;;;70.22;44.20;;;;;;;7.00;76.73;100977.70;2148612;81;20983;-82
2022/03/16 07:01:52;;;;;;;66.62;43.00;;;;;;;7.07;76.46;100989.46;2147594;80;20996;-78
2022/03/16 07:04:54;;;;;;;71.97;47.38;;;;;;;7.13;76.28;101003.48;2145055;81;20995;-79
2022/03/16 07:07:58;;;;;;;76.87;44.77;;;;;;;7.18;76.18;101006.59;2138534;81;21041;-81
2022/03/16 07:10:59;;;;;;;66.62;42.50;;;;;;;7.23;75.80;101006.20;2148551;81;20991;-78
2022/03/16 07:17:21;;;;;;;67.27;44.42;;;;;;;7.40;75.38;101009.67;2142118;81;21015;-79
2022/03/16 07:20:23;;;;;;;73.28;47.83;;;;;;;7.39;75.24;101005.81;2145982;81;21032;-78
2022/03/16 07:23:24;;;;;;;74.10;45.75;;;;;;;7.40;75.18;101015.41;2143516;81;21323;-79
2022/03/16 07:26:27;;;;;;;66.92;44.10;;;;;;;7.49;75.10;101013.81;2148413;81;20999;-78
2022/03/16 07:29:29;;;;;;;69.37;44.18;;;;;;;7.49;74.83;101017.32;2141114;81;21506;-80
2022/03/16 07:32:30;;;;;;;65.10;43.75;;;;;;;7.52;74.90;101011.78;2152051;81;21065;-79
2022/03/16 07:35:33;;;;;;;67.32;43.80;;;;;;;7.51;74.63;101008.77;2143951;81;21097;-78
2022/03/16 07:38:35;;;;;;;65.10;43.13;;;;;;;7.52;74.52;101017.06;2149524;81;21055;-79
2022/03/16 07:41:36;;;;;;;64.17;40.78;;;;;;;7.51;74.48;101021.97;2149377;81;21494;-79
2022/03/16 07:44:38;;;;;;;65.37;42.67;;;;;;;7.54;74.56;101019.08;2141184;81;21553;-80
2022/03/16 07:47:39;;;;;;;69.62;44.63;;;;;;;7.60;74.34;101013.32;2148279;81;21586;-80
2022/03/16 07:50:41;;;;;;;67.55;46.30;;;;;;;7.70;74.45;101019.99;2147821;81;20980;-77
2022/03/16 07:53:42;;;;;;;68.12;45.63;;;;;;;7.89;74.19;101021.97;2140843;81;21010;-79
2022/03/16 07:56:45;;;;;;;78.90;49.93;;;;;;;8.04;73.84;101021.99;2157690;81;21035;-81
2022/03/16 07:59:46;;;;;;;68.72;45.48;;;;;;;8.21;73.53;101025.03;2148084;81;21588;-79
2022/03/16 08:02:48;;;;;;;67.10;45.45;;;;;;;8.30;73.58;101025.08;2139704;81;21052;-80
2022/03/16 08:05:50;;;;;;;61.18;42.30;;;;;;;8.63;73.77;101027.67;2147274;81;21041;-80
2022/03/16 08:08:53;;;;;;;67.72;45.10;;;;;;;8.75;72.31;101026.61;2140735;81;20986;-78
2022/03/16 08:11:54;;;;;;;62.33;42.73;;;;;;;8.77;72.45;101028.64;2149415;81;21013;-79
2022/03/16 08:14:56;;;;;;;65.97;44.40;;;;;;;8.92;71.46;101031.27;2139764;81;21015;-78
2022/03/16 08:17:57;;;;;;;63.58;44.60;;;;;;;9.07;71.79;101029.60;2141261;81;21028;-80
2022/03/16 08:20:59;;;;;;;65.87;44.03;;;;;;;9.40;72.15;101029.27;2144850;81;20998;-78
2022/03/16 08:24:00;;;;;;;60.78;41.53;;;;;;;9.95;71.92;101038.50;2138176;81;21030;-80
2022/03/16 08:27:03;;;;;;;57.73;41.00;;;;;;;10.48;70.95;101042.02;2140036;81;21055;-79
2022/03/16 08:30:07;;;;;;;58.10;40.95;;;;;;;10.83;69.47;101037.34;2144868;81;21069;-79
2022/03/16 08:33:09;;;;;;;60.20;42.17;;;;;;;11.08;68.42;101041.15;2137294;81;21015;-79
2022/03/16 08:36:11;;;;;;;63.48;41.58;;;;;;;11.19;68.16;101038.30;2145583;81;21049;-80
2022/03/16 08:39:12;;;;;;;56.42;42.15;;;;;;;11.25;67.42;101044.83;2151617;81;21494;-80
2022/03/16 08:42:15;;;;;;;58.50;41.40;;;;;;;11.32;65.41;101046.39;2145143;81;21026;-78
2022/03/16 08:45:16;;;;;;;56.20;41.65;;;;;;;11.15;66.30;101052.87;2158807;81;21481;-79
2022/03/16 08:48:18;;;;;;;53.95;38.55;;;;;;;11.07;65.44;101056.75;2157193;81;21025;-80
2022/03/16 08:51:20;;;;;;;58.63;41.53;;;;;;;11.12;65.85;101061.14;2158347;80;20998;-79
2022/03/16 08:54:22;;;;;;;55.65;39.75;;;;;;;11.14;65.56;101061.80;2150905;81;21026;-80
2022/03/16 08:57:23;;;;;;;54.08;37.78;;;;;;;11.11;65.15;101060.77;2158142;81;20959;-80
2022/03/16 09:00:25;;;;;;;55.80;40.17;;;;;;;11.13;64.16;101067.28;2158923;81;21000;-79
2022/03/16 09:03:27;;;;;;;60.58;40.92;;;;;;;11.11;64.61;101075.38;2149959;81;21053;-79
2022/03/16 09:06:30;;;;;;;52.78;37.88;;;;;;;11.22;64.36;101077.02;2158731;81;21510;-81
2022/03/16 09:09:31;;;;;;;53.23;37.23;;;;;;;11.20;64.47;101079.80;2157157;81;20999;-77
2022/03/16 09:12:33;;;;;;;56.28;40.23;;;;;;;11.18;63.73;101083.12;2158420;81;21017;-78
2022/03/16 09:15:34;;;;;;;54.18;40.08;;;;;;;11.18;63.73;101083.12;2159829;81;20989;-79
2022/03/16 09:18:37;;;;;;;52.00;40.20;;;;;;;11.13;63.25;101084.05;2162798;81;21295;-80
2022/03/16 09:21:39;;;;;;;53.85;38.70;;;;;;;10.97;63.46;101088.64;2153096;81;20989;-80
2022/03/16 09:24:41;;;;;;;51.53;37.30;;;;;;;11.06;63.47;101092.23;2163812;81;21177;-80
2022/03/16 09:27:42;;;;;;;47.17;36.10;;;;;;;11.19;62.88;101083.95;2159444;81;20981;-79
2022/03/16 09:30:44;;;;;;;49.33;35.08;;;;;;;11.30;62.97;101092.22;2156097;81;20966;-81
2022/03/16 09:33:46;;;;;;;49.75;36.75;;;;;;;11.50;60.20;101092.95;2157089;81;21005;-78
2022/03/16 09:36:48;;;;;;;47.13;33.20;;;;;;;12.02;61.50;101096.69;2157852;80;20959;-80
2022/03/16 09:39:49;;;;;;;41.90;33.42;;;;;;;12.02;61.50;101096.69;2161198;81;20985;-78
2022/03/16 09:42:53;;;;;;;44.08;33.13;;;;;;;12.24;60.51;101106.50;2153955;80;21007;-80
2022/03/16 09:45:59;;;;;;;42.98;33.02;;;;;;;12.25;58.79;101104.20;2142160;81;21583;-79
2022/03/16 09:49:01;;;;;;;44.25;32.50;;;;;;;12.34;59.35;101105.42;2143213;81;21054;-79
2022/03/16 09:52:03;;;;;;;46.83;33.48;;;;;;;12.54;56.98;101098.59;2147632;80;21290;-79
2022/03/16 09:55:06;;;;;;;46.53;31.62;;;;;;;12.41;57.35;101109.62;2144519;81;21011;-79
2022/03/16 09:58:07;;;;;;;44.30;33.15;;;;;;;12.14;54.86;101103.94;2149959;81;21465;-78
2022/03/16 10:01:09;;;;;;;42.65;32.60;;;;;;;11.78;56.40;101100.39;2151568;81;21025;-78
2022/03/16 10:04:11;;;;;;;41.70;30.62;;;;;;;12.08;57.64;101112.03;2145926;81;20959;-78
2022/03/16 10:07:13;;;;;;;43.52;31.85;;;;;;;12.47;56.64;101106.38;2141981;81;20999;-79
2022/03/16 10:13:34;;;;;;;43.95;32.38;;;;;;;12.79;55.94;101111.58;2145928;80;21023;-78
2022/03/16 10:19:57;;;;;;;43.60;33.25;;;;;;;13.03;54.59;101116.69;2140598;81;21058;-78
2022/03/16 10:23:05;;;;;;;40.95;31.42;;;;;;;12.88;53.90;101113.79;2137460;81;21069;-79
2022/03/16 10:26:07;;;;;;;40.10;31.05;;;;;;;12.89;54.38;101114.95;2134311;81;21093;-80
2022/03/16 10:29:11;;;;;;;38.55;29.70;;;;;;;12.93;53.82;101125.64;2150048;81;21478;-80
2022/03/16 10:32:13;;;;;;;43.73;30.80;;;;;;;13.07;53.44;101122.06;2117918;81;21030;-79
2022/03/16 10:35:14;;;;;;;39.95;28.23;;;;;;;12.95;52.11;101128.98;2148423;81;21010;-79
2022/03/16 10:38:16;;;;;;;40.90;29.12;;;;;;;13.05;51.89;101130.20;2136694;81;21046;-79
2022/03/16 10:48:21;;;;;;;38.45;28.75;;;;;;;12.84;50.79;101141.24;2141659;81;21030;-81
2022/03/16 10:51:22;;;;;;;37.55;27.65;;;;;;;12.91;50.76;101142.27;2144379;81;20975;-79
2022/03/16 10:54:25;;;;;;;36.30;26.90;;;;;;;13.06;51.43;101135.85;2143630;81;21123;-80
2022/03/16 10:57:27;;;;;;;32.78;26.30;;;;;;;13.28;49.97;101133.17;2146062;80;20986;-80
2022/03/16 11:00:29;;;;;;;36.68;25.10;;;;;;;13.44;50.10;101145.24;2142593;81;21567;-78
2022/03/16 11:03:35;;;;;;;36.90;26.75;;;;;;;13.48;49.14;101142.25;2118429;81;20969;-80
2022/03/16 11:06:37;;;;;;;36.33;27.25;;;;;;;13.28;47.58;101149.16;2146706;81;21025;-80
2022/03/16 11:09:41;;;;;;;38.40;28.05;;;;;;;13.23;49.54;101154.09;2130292;81;20994;-81
2022/03/16 11:16:05;;;;;;;35.60;28.67;;;;;;;13.31;48.20;101160.00;2146029;80;21085;-80
2022/03/16 11:19:07;;;;;;;31.82;23.27;;;;;;;13.41;49.45;101160.23;2151211;80;21496;-80
2022/03/16 11:22:26;;;;;;;29.85;22.55;;;;;;;13.39;47.73;101158.21;2146294;81;20989;-80
2022/03/16 11:25:33;;;;;;;29.60;21.57;;;;;;;13.17;47.82;101174.22;2147623;81;22162;-79
2022/03/16 11:29:01;;;;;;;32.13;24.90;;;;;;;12.88;47.47;101173.72;2147415;80;20986;-78
2022/03/16 11:32:12;;;;;;;32.05;23.60;;;;;;;13.17;48.53;101168.06;2147902;81;21041;-79
2022/03/16 11:35:17;;;;;;;26.97;21.25;;;;;;;13.35;47.14;101164.04;2145358;81;21576;-79
2022/03/16 11:38:21;;;;;;;26.80;21.07;;;;;;;13.30;46.61;101169.84;2148319;80;21497;-80
2022/03/16 11:41:32;;;;;;;31.50;23.62;;;;;;;13.39;46.96;101163.54;2145262;80;21085;-79
2022/03/16 11:44:34;;;;;;;34.83;25.97;;;;;;;13.61;47.21;101166.64;2137918;81;21565;-80
2022/03/16 11:47:36;;;;;;;30.92;22.90;;;;;;;13.82;47.17;101165.69;2103511;82;21049;-80
2022/03/16 11:50:37;;;;;;;35.30;26.15;;;;;;;13.74;45.56;101172.84;2106451;82;21088;-80
2022/03/16 11:53:51;;;;;;;35.65;26.80;;;;;;;13.19;45.48;101170.91;2105966;83;21041;-80
2022/03/16 11:56:53;;;;;;;34.27;25.95;;;;;;;12.82;46.63;101180.50;2105969;83;21575;-78
2022/03/16 11:59:59;;;;;;;34.10;26.30;;;;;;;12.90;46.65;101168.58;2101897;83;21037;-79
2022/03/16 12:03:00;;;;;;;31.62;26.05;;;;;;;13.03;45.24;101165.48;2104742;83;21010;-80
2022/03/16 12:06:02;;;;;;;32.95;24.55;;;;;;;12.88;45.60;101174.55;2099189;82;21007;-80
2022/03/16 12:09:04;;;;;;;33.38;25.90;;;;;;;12.67;46.29;101176.23;2102998;83;21001;-79
2022/03/16 12:15:37;;;;;;;36.88;25.57;;;;;;;12.76;46.75;101177.97;2105984;83;21105;-80
2022/03/16 12:18:46;;;;;;;34.92;26.05;;;;;;;12.54;45.91;101174.46;2107309;83;20989;-80
2022/03/16 12:21:48;;;;;;;40.38;26.93;;;;;;;12.42;46.19;101179.19;2102650;82;21001;-79
2022/03/16 12:31:40;;;;;;;39.05;28.55;;;;;;;12.05;46.81;101182.83;2104965;83;21026;-79
2022/03/16 12:34:40;;;;;;;41.75;31.25;;;;;;;12.25;47.01;101180.03;2100537;83;21043;-80
2022/03/16 12:37:50;;;;;;;44.73;31.73;;;;;;;12.27;46.99;101180.70;2100592;82;21037;-81
2022/03/16 12:44:16;;;;;;;50.50;36.15;;;;;;;12.13;47.57;101193.20;2103850;82;21536;-80
2022/03/16 12:47:31;;;;;;;51.48;36.48;;;;;;;12.15;48.16;101193.89;2140605;81;21042;-82
2022/03/16 12:50:32;;;;;;;52.48;37.40;;;;;;;12.08;47.00;101194.50;2141615;81;21077;-80
2022/03/16 12:53:44;;;;;;;51.68;36.33;;;;;;;11.93;47.57;101197.31;2144019;81;21533;-82
2022/03/16 12:56:44;;;;;;;57.48;38.08;;;;;;;11.94;48.07;101199.00;2142018;81;20971;-80
2022/03/16 12:59:52;;;;;;;52.65;38.40;;;;;;;12.07;47.46;101202.61;2146099;81;21000;-80
2022/03/16 13:02:52;;;;;;;53.28;37.50;;;;;;;12.31;48.55;101203.37;2143065;81;21037;-80
2022/03/16 13:05:54;;;;;;;50.45;37.53;;;;;;;12.60;47.55;101200.97;2144827;81;20978;-81
2022/03/16 13:08:55;;;;;;;56.37;38.83;;;;;;;12.68;47.07;101205.03;2146456;81;21069;-81
2022/03/16 13:12:12;;;;;;;47.30;34.13;;;;;;;12.71;48.00;101210.88;2145575;81;21017;-81
2022/03/16 13:15:13;;;;;;;45.20;33.55;;;;;;;12.74;46.40;101211.89;2144015;81;21024;-80
2022/03/16 13:18:33;;;;;;;49.67;36.73;;;;;;;12.62;47.04;101214.47;2143361;81;21021;-81
2022/03/16 13:21:37;;;;;;;47.23;34.92;;;;;;;12.46;46.36;101215.15;2150552;81;21593;-83
2022/03/16 13:24:46;;;;;;;45.40;32.10;;;;;;;12.37;47.08;101217.40;2141615;81;20998;-80
2022/03/16 13:27:51;;;;;;;47.62;34.27;;;;;;;12.36;46.01;101212.21;2142547;81;21057;-81
2022/03/16 13:30:53;;;;;;;45.83;34.98;;;;;;;12.13;46.25;101215.31;2141180;81;21081;-81
2022/03/16 13:34:04;;;;;;;49.95;34.78;;;;;;;12.18;46.84;101214.88;2142088;81;21041;-79
2022/03/16 13:37:27;;;;;;;41.18;31.85;;;;;;;12.20;46.66;101203.09;2147484;80;21624;-81
2022/03/16 13:40:38;;;;;;;39.95;29.50;;;;;;;12.36;46.57;101207.75;2141473;81;21017;-82
2022/03/16 13:43:39;;;;;;;;;;;;;;;12.49;45.43;101209.52;2153040;81;21045;-81
2022/03/16 13:46:44;;;;;;;41.28;31.70;;;;;;;12.53;46.30;101210.90;2146605;80;20117;-79
2022/03/16 13:49:51;;;;;;;45.48;34.65;;;;;;;12.49;45.53;101217.50;2154798;81;21454;-79
2022/03/16 13:52:53;;;;;;;41.53;31.40;;;;;;;12.56;45.92;101220.41;2150191;81;21542;-80
2022/03/16 13:55:58;;;;;;;48.40;34.80;;;;;;;12.61;45.73;101214.61;2144514;81;21011;-80
2022/03/16 13:59:06;;;;;;;44.53;33.58;;;;;;;12.28;44.27;101213.82;2139720;81;21284;-79
2022/03/16 14:02:09;;;;;;;48.17;33.50;;;;;;;12.06;44.42;101227.06;2141038;81;21006;-80
2022/03/16 14:05:17;;;;;;;44.95;34.40;;;;;;;11.83;45.20;101228.42;2142996;81;21124;-80
2022/03/16 14:08:18;;;;;;;43.13;32.95;;;;;;;11.82;45.33;101228.89;2148148;81;21067;-79
2022/03/16 14:11:32;;;;;;;44.13;32.70;;;;;;;11.77;45.37;101226.33;2141575;81;20959;-80
2022/03/16 14:14:34;;;;;;;42.48;31.55;;;;;;;11.73;45.87;101232.94;2140574;81;21018;-80
2022/03/16 14:17:58;;;;;;;45.78;32.63;;;;;;;11.77;46.08;101240.95;2146143;81;21466;-80
2022/03/16 14:20:59;;;;;;;50.05;35.40;;;;;;;11.77;45.92;101241.82;2139166;81;21501;-80
2022/03/16 14:24:00;;;;;;;45.90;33.63;;;;;;;11.69;46.17;101243.54;2142542;81;21049;-79
2022/03/16 14:27:26;;;;;;;44.77;33.33;;;;;;;11.74;46.49;101241.25;2146985;81;21324;-81
2022/03/16 14:30:27;;;;;;;43.55;32.25;;;;;;;11.78;46.61;101239.49;2144236;81;21455;-78